Terminal Aerodrome Forecast
Issued by NWS Green Bay, WI

Home | Current Version | Previous Version | Graphics & Text | Print | Product List | Glossary On
Versions: 1 2 3 4 5 6 7 8 9 10 11 12 13 14 15 16 17 18 19 20 21 22 23 24 25 26 27 28 29 30 31 32 33 34 35 36 37 38 39 40 41 42 43
000
FTUS43 KGRB 221700
TAFGRB
TAF
KGRB 221730Z 2218/2318 09006KT 6SM HZ OVC015
     FM222000 09004KT P6SM BKN025 BKN040
     FM230400 VRB03KT 4SM BR BKN018
     FM230700 VRB03KT 3SM BR OVC006
      TEMPO 2309/2313 1SM BR OVC003
     FM231500 08006KT P6SM BKN010 OVC018=

USA.gov is the U.S. government's official web portal to all federal, state and local government web resources and services.